sensor_id;sensor_type;location;lat;lon;timestamp;pressure;altitude;pressure_sealevel;temperature;humidity
64644;BME280;51056;50.330;7.914;2023-01-26T14:11:16;101234.31;;;1.11;77.54
64644;BME280;51056;50.330;7.914;2023-01-26T14:14:26;101231.72;;;1.27;77.35
64644;BME280;51056;50.330;7.914;2023-01-26T14:17:49;101227.44;;;1.29;77.65
64644;BME280;51056;50.330;7.914;2023-01-26T14:21:17;101229.22;;;0.96;80.18
64644;BME280;51056;50.330;7.914;2023-01-26T14:24:36;101231.81;;;0.93;80.55
64644;BME280;51056;50.330;7.914;2023-01-26T14:27:44;101233.50;;;1.06;80.17
64644;BME280;51056;50.330;7.914;2023-01-26T14:30:53;101229.19;;;1.16;80.05
64644;BME280;51056;50.330;7.914;2023-01-26T14:33:59;101234.38;;;1.02;80.29
64644;BME280;51056;50.330;7.914;2023-01-26T14:37:16;101233.50;;;0.54;82.42
64644;BME280;51056;50.330;7.914;2023-01-26T14:40:22;101233.53;;;0.71;82.74
64644;BME280;51056;50.330;7.914;2023-01-26T14:43:26;101238.66;;;0.76;82.59
64644;BME280;51056;50.330;7.914;2023-01-26T14:53:02;101242.97;;;0.74;84.21
64644;BME280;51056;50.330;7.914;2023-01-26T14:56:16;101233.53;;;0.83;83.72
64644;BME280;51056;50.330;7.914;2023-01-26T14:59:22;101233.50;;;0.94;83.49
64644;BME280;51056;50.330;7.914;2023-01-26T15:02:35;101239.53;;;0.84;84.61
64644;BME280;51056;50.330;7.914;2023-01-26T15:05:39;101241.19;;;1.11;83.74
64644;BME280;51056;50.330;7.914;2023-01-26T15:09:02;101242.13;;;0.61;86.02
64644;BME280;51056;50.330;7.914;2023-01-26T15:12:12;101235.25;;;0.74;85.58
64644;BME280;51056;50.330;7.914;2023-01-26T15:15:27;101241.22;;;0.92;85.45
64644;BME280;51056;50.330;7.914;2023-01-26T15:18:34;101249.81;;;0.87;85.61
64644;BME280;51056;50.330;7.914;2023-01-26T15:21:45;101237.78;;;1.04;84.92
64644;BME280;51056;50.330;7.914;2023-01-26T15:25:05;101240.34;;;0.98;85.54
64644;BME280;51056;50.330;7.914;2023-01-26T15:28:21;101248.06;;;1.13;84.53
64644;BME280;51056;50.330;7.914;2023-01-26T15:34:37;101254.91;;;1.17;83.89
64644;BME280;51056;50.330;7.914;2023-01-26T15:37:40;101244.66;;;0.99;85.17
64644;BME280;51056;50.330;7.914;2023-01-26T15:40:44;101253.22;;;1.10;85.23
64644;BME280;51056;50.330;7.914;2023-01-26T15:43:47;101254.09;;;1.03;85.17
64644;BME280;51056;50.330;7.914;2023-01-26T15:46:51;101252.34;;;1.17;85.00
64644;BME280;51056;50.330;7.914;2023-01-26T15:49:55;101248.94;;;1.00;85.57
64644;BME280;51056;50.330;7.914;2023-01-26T15:52:59;101248.09;;;0.92;85.58
64644;BME280;51056;50.330;7.914;2023-01-26T15:56:03;101248.06;;;1.10;85.28
64644;BME280;51056;50.330;7.914;2023-01-26T15:59:07;101255.78;;;1.20;84.91
64644;BME280;51056;50.330;7.914;2023-01-26T16:02:16;101260.03;;;1.30;84.86
64644;BME280;51056;50.330;7.914;2023-01-26T16:05:23;101260.91;;;1.30;84.37
64644;BME280;51056;50.330;7.914;2023-01-26T16:08:28;101248.88;;;1.32;83.97
64644;BME280;51056;50.330;7.914;2023-01-26T16:11:39;101248.06;;;1.23;84.01
64644;BME280;51056;50.330;7.914;2023-01-26T16:14:46;101250.63;;;1.26;83.89
64644;BME280;51056;50.330;7.914;2023-01-26T16:17:49;101248.94;;;0.99;84.67
64644;BME280;51056;50.330;7.914;2023-01-26T16:20:53;101248.97;;;0.91;85.70
64644;BME280;51056;50.330;7.914;2023-01-26T16:23:56;101252.38;;;0.76;86.13
64644;BME280;51056;50.330;7.914;2023-01-26T16:26:59;101248.97;;;0.69;86.56
64644;BME280;51056;50.330;7.914;2023-01-26T16:30:03;101245.56;;;0.71;87.63
64644;BME280;51056;50.330;7.914;2023-01-26T16:33:10;101246.38;;;0.97;86.50
64644;BME280;51056;50.330;7.914;2023-01-26T16:36:15;101251.50;;;1.05;85.82
64644;BME280;51056;50.330;7.914;2023-01-26T16:39:18;101244.63;;;1.14;85.32
64644;BME280;51056;50.330;7.914;2023-01-26T16:42:27;101250.63;;;1.23;85.05
64644;BME280;51056;50.330;7.914;2023-01-26T16:45:35;101250.63;;;1.26;84.97
64644;BME280;51056;50.330;7.914;2023-01-26T16:48:47;101251.47;;;1.28;85.13
64644;BME280;51056;50.330;7.914;2023-01-26T16:52:07;101258.31;;;1.27;85.36
64644;BME280;51056;50.330;7.914;2023-01-26T16:55:14;101243.75;;;1.28;85.51
64644;BME280;51056;50.330;7.914;2023-01-26T16:58:19;101243.72;;;1.34;85.60
64644;BME280;51056;50.330;7.914;2023-01-26T17:01:26;101245.44;;;1.32;85.59
64644;BME280;51056;50.330;7.914;2023-01-26T17:04:31;101243.75;;;1.31;85.54
64644;BME280;51056;50.330;7.914;2023-01-26T17:07:35;101246.34;;;1.25;86.26
64644;BME280;51056;50.330;7.914;2023-01-26T17:10:38;101248.91;;;1.20;86.88
64644;BME280;51056;50.330;7.914;2023-01-26T17:13:43;101244.59;;;1.21;87.15
64644;BME280;51056;50.330;7.914;2023-01-26T17:16:47;101254.91;;;1.27;86.88
64644;BME280;51056;50.330;7.914;2023-01-26T17:19:53;101248.03;;;1.26;86.88
64644;BME280;51056;50.330;7.914;2023-01-26T17:22:58;101251.47;;;1.28;87.05
64644;BME280;51056;50.330;7.914;2023-01-26T17:26:01;101251.47;;;1.28;87.32
64644;BME280;51056;50.330;7.914;2023-01-26T17:29:05;101240.31;;;1.24;87.47
64644;BME280;51056;50.330;7.914;2023-01-26T17:32:10;101247.19;;;1.28;87.54
64644;BME280;51056;50.330;7.914;2023-01-26T17:35:14;101244.59;;;1.30;87.26
64644;BME280;51056;50.330;7.914;2023-01-26T17:38:23;101232.56;;;1.32;87.73
64644;BME280;51056;50.330;7.914;2023-01-26T17:41:59;101236.88;;;1.28;87.45
64644;BME280;51056;50.330;7.914;2023-01-26T17:45:04;101240.28;;;1.30;87.51
64644;BME280;51056;50.330;7.914;2023-01-26T17:48:09;101247.19;;;1.22;88.08
64644;BME280;51056;50.330;7.914;2023-01-26T17:51:17;101245.44;;;1.27;88.03
64644;BME280;51056;50.330;7.914;2023-01-26T17:54:23;101238.59;;;1.28;87.84
64644;BME280;51056;50.330;7.914;2023-01-26T17:57:28;101238.59;;;1.31;88.27
64644;BME280;51056;50.330;7.914;2023-01-26T18:00:31;101237.72;;;1.30;87.81
64644;BME280;51056;50.330;7.914;2023-01-26T18:03:38;101245.44;;;1.27;88.36
64644;BME280;51056;50.330;7.914;2023-01-26T18:06:44;101237.72;;;1.29;88.45
64644;BME280;51056;50.330;7.914;2023-01-26T18:09:48;101253.19;;;1.26;88.23
64644;BME280;51056;50.330;7.914;2023-01-26T18:12:56;101244.59;;;1.30;88.03
64644;BME280;51056;50.330;7.914;2023-01-26T18:16:04;101250.63;;;1.29;88.28
64644;BME280;51056;50.330;7.914;2023-01-26T18:19:09;101258.34;;;1.23;88.79
64644;BME280;51056;50.330;7.914;2023-01-26T18:22:12;101250.63;;;1.26;88.91
64644;BME280;51056;50.330;7.914;2023-01-26T18:25:21;101248.03;;;1.29;88.52
64644;BME280;51056;50.330;7.914;2023-01-26T18:28:24;101254.03;;;1.29;88.57
64644;BME280;51056;50.330;7.914;2023-01-26T18:31:32;101253.19;;;1.29;88.42
64644;BME280;51056;50.330;7.914;2023-01-26T18:34:38;101253.16;;;1.30;89.05
64644;BME280;51056;50.330;7.914;2023-01-26T18:37:46;101244.56;;;1.36;88.86
64644;BME280;51056;50.330;7.914;2023-01-26T18:40:49;101257.47;;;1.36;88.65
64644;BME280;51056;50.330;7.914;2023-01-26T18:43:54;101258.31;;;1.35;89.14
64644;BME280;51056;50.330;7.914;2023-01-26T18:46:59;101262.59;;;1.39;88.84
64644;BME280;51056;50.330;7.914;2023-01-26T18:50:03;101254.88;;;1.36;88.71
64644;BME280;51056;50.330;7.914;2023-01-26T18:53:07;101252.31;;;1.34;88.83
64644;BME280;51056;50.330;7.914;2023-01-26T18:56:12;101250.59;;;1.36;88.96
64644;BME280;51056;50.330;7.914;2023-01-26T18:59:17;101261.75;;;1.37;88.91
64644;BME280;51056;50.330;7.914;2023-01-26T19:02:21;101254.00;;;1.40;89.10
64644;BME280;51056;50.330;7.914;2023-01-26T19:05:24;101253.16;;;1.38;88.89
64644;BME280;51056;50.330;7.914;2023-01-26T19:08:28;101254.91;;;1.34;89.32
64644;BME280;51056;50.330;7.914;2023-01-26T19:11:33;101257.47;;;1.33;89.06
64644;BME280;51056;50.330;7.914;2023-01-26T19:14:37;101261.75;;;1.34;89.15
64644;BME280;51056;50.330;7.914;2023-01-26T19:17:40;101246.31;;;1.31;89.38
64644;BME280;51056;50.330;7.914;2023-01-26T19:21:02;101247.16;;;1.33;89.53
64644;BME280;51056;50.330;7.914;2023-01-26T19:24:07;101238.56;;;1.32;89.40
64644;BME280;51056;50.330;7.914;2023-01-26T19:27:15;101242.00;;;1.33;89.68
64644;BME280;51056;50.330;7.914;2023-01-26T19:30:22;101242.03;;;1.31;89.32
64644;BME280;51056;50.330;7.914;2023-01-26T19:33:27;101244.56;;;1.36;89.72
64644;BME280;51056;50.330;7.914;2023-01-26T19:36:35;101249.72;;;1.36;89.25
64644;BME280;51056;50.330;7.914;2023-01-26T19:39:38;101242.91;;;1.20;90.40
64644;BME280;51056;50.330;7.914;2023-01-26T19:42:41;101244.59;;;1.30;90.21
64644;BME280;51056;50.330;7.914;2023-01-26T19:45:53;101246.28;;;1.34;89.88
64644;BME280;51056;50.330;7.914;2023-01-26T19:48:59;101244.59;;;1.34;89.91
64644;BME280;51056;50.330;7.914;2023-01-26T19:52:04;101246.31;;;1.31;89.71
64644;BME280;51056;50.330;7.914;2023-01-26T19:55:07;101248.91;;;1.28;90.45
64644;BME280;51056;50.330;7.914;2023-01-26T19:58:10;101242.03;;;1.34;89.93
64644;BME280;51056;50.330;7.914;2023-01-26T20:01:14;101242.84;;;1.41;90.18
64644;BME280;51056;50.330;7.914;2023-01-26T20:04:18;101242.00;;;1.36;89.92
64644;BME280;51056;50.330;7.914;2023-01-26T20:07:30;101242.00;;;1.41;89.92
64644;BME280;51056;50.330;7.914;2023-01-26T20:10:41;101237.69;;;1.44;89.75
64644;BME280;51056;50.330;7.914;2023-01-26T20:13:44;101236.81;;;1.42;90.03
64644;BME280;51056;50.330;7.914;2023-01-26T20:16:49;101236.81;;;1.42;89.94
64644;BME280;51056;50.330;7.914;2023-01-26T20:19:52;101237.69;;;1.44;89.67
64644;BME280;51056;50.330;7.914;2023-01-26T20:22:56;101235.13;;;1.38;90.17
64644;BME280;51056;50.330;7.914;2023-01-26T20:26:07;101237.69;;;1.47;89.67
64644;BME280;51056;50.330;7.914;2023-01-26T20:29:16;101240.25;;;1.46;90.02
64644;BME280;51056;50.330;7.914;2023-01-26T20:32:23;101241.09;;;1.43;89.98
64644;BME280;51056;50.330;7.914;2023-01-26T20:35:26;101237.69;;;1.41;89.77
64644;BME280;51056;50.330;7.914;2023-01-26T20:38:30;101234.25;;;1.39;90.02
64644;BME280;51056;50.330;7.914;2023-01-26T20:41:34;101232.53;;;1.44;90.10
64644;BME280;51056;50.330;7.914;2023-01-26T20:44:38;101240.25;;;1.49;89.93
64644;BME280;51056;50.330;7.914;2023-01-26T20:47:48;101227.38;;;1.44;89.98
64644;BME280;51056;50.330;7.914;2023-01-26T20:50:51;101223.97;;;1.41;89.98
64644;BME280;51056;50.330;7.914;2023-01-26T20:53:55;101226.53;;;1.39;90.36
64644;BME280;51056;50.330;7.914;2023-01-26T20:56:59;101222.22;;;1.44;90.35
64644;BME280;51056;50.330;7.914;2023-01-26T21:00:03;101220.47;;;1.49;89.82
64644;BME280;51056;50.330;7.914;2023-01-26T21:03:07;101226.50;;;1.51;89.82
64644;BME280;51056;50.330;7.914;2023-01-26T21:06:13;101220.47;;;1.49;89.69
64644;BME280;51056;50.330;7.914;2023-01-26T21:09:16;101217.06;;;1.47;90.23
64644;BME280;51056;50.330;7.914;2023-01-26T21:12:21;101220.47;;;1.49;89.94
64644;BME280;51056;50.330;7.914;2023-01-26T21:15:24;101214.50;;;1.44;90.06
64644;BME280;51056;50.330;7.914;2023-01-26T21:18:51;101217.06;;;1.44;90.04
64644;BME280;51056;50.330;7.914;2023-01-26T21:22:19;101208.47;;;1.48;90.24
64644;BME280;51056;50.330;7.914;2023-01-26T21:25:26;101194.72;;;1.46;90.24
64644;BME280;51056;50.330;7.914;2023-01-26T21:28:31;101197.28;;;1.46;90.33
64644;BME280;51056;50.330;7.914;2023-01-26T21:31:35;101193.88;;;1.44;90.20
64644;BME280;51056;50.330;7.914;2023-01-26T21:34:38;101188.72;;;1.47;90.43
64644;BME280;51056;50.330;7.914;2023-01-26T21:37:47;101194.69;;;1.49;90.40
64644;BME280;51056;50.330;7.914;2023-01-26T21:44:32;101191.28;;;1.53;90.37
64644;BME280;51056;50.330;7.914;2023-01-26T21:47:55;101187.81;;;1.54;90.14
64644;BME280;51056;50.330;7.914;2023-01-26T21:51:18;101184.38;;;1.49;90.32
64644;BME280;51056;50.330;7.914;2023-01-26T21:54:40;101183.56;;;1.47;90.58
64644;BME280;51056;50.330;7.914;2023-01-26T21:57:44;101182.69;;;1.48;90.72
64644;BME280;51056;50.330;7.914;2023-01-26T22:01:40;101175.81;;;1.50;90.28
64644;BME280;51056;50.330;7.914;2023-01-26T22:04:50;101181.81;;;1.52;90.42
64644;BME280;51056;50.330;7.914;2023-01-26T22:07:54;101174.09;;;1.49;90.64
64644;BME280;51056;50.330;7.914;2023-01-26T22:10:57;101174.09;;;1.48;90.52
64644;BME280;51056;50.330;7.914;2023-01-26T22:14:00;101173.25;;;1.47;90.42
64644;BME280;51056;50.330;7.914;2023-01-26T22:17:04;101176.66;;;1.46;90.67
64644;BME280;51056;50.330;7.914;2023-01-26T22:20:08;101168.09;;;1.47;90.83
64644;BME280;51056;50.330;7.914;2023-01-26T22:23:11;101168.94;;;1.43;90.49
64644;BME280;51056;50.330;7.914;2023-01-26T22:26:17;101173.25;;;1.44;91.00
64644;BME280;51056;50.330;7.914;2023-01-26T22:29:24;101173.25;;;1.44;90.65
64644;BME280;51056;50.330;7.914;2023-01-26T22:32:27;101174.09;;;1.43;91.04
64644;BME280;51056;50.330;7.914;2023-01-26T22:35:31;101176.72;;;1.42;91.02
64644;BME280;51056;50.330;7.914;2023-01-26T22:38:35;101169.81;;;1.42;91.22
64644;BME280;51056;50.330;7.914;2023-01-26T22:41:39;101167.22;;;1.47;90.80
64644;BME280;51056;50.330;7.914;2023-01-26T22:44:43;101174.94;;;1.50;90.75
64644;BME280;51056;50.330;7.914;2023-01-26T22:47:47;101172.38;;;1.48;90.90
64644;BME280;51056;50.330;7.914;2023-01-26T22:50:51;101165.50;;;1.50;90.99
64644;BME280;51056;50.330;7.914;2023-01-26T22:53:56;101170.66;;;1.53;90.70
64644;BME280;51056;50.330;7.914;2023-01-26T22:57:00;101170.66;;;1.53;90.98
64644;BME280;51056;50.330;7.914;2023-01-26T23:00:04;101171.47;;;1.58;90.77
64644;BME280;51056;50.330;7.914;2023-01-26T23:03:08;101169.78;;;1.54;90.78
64644;BME280;51056;50.330;7.914;2023-01-26T23:06:13;101170.63;;;1.58;90.60
64644;BME280;51056;50.330;7.914;2023-01-26T23:09:16;101168.00;;;1.62;90.61
64644;BME280;51056;50.330;7.914;2023-01-26T23:12:34;101164.59;;;1.57;90.87
64644;BME280;51056;50.330;7.914;2023-01-26T23:15:38;101168.00;;;1.62;91.03
64644;BME280;51056;50.330;7.914;2023-01-26T23:18:41;101157.69;;;1.62;90.48
64644;BME280;51056;50.330;7.914;2023-01-26T23:21:45;101157.72;;;1.61;90.89
64644;BME280;51056;50.330;7.914;2023-01-26T23:24:48;101156.84;;;1.60;90.58
64644;BME280;51056;50.330;7.914;2023-01-26T23:28:11;101151.69;;;1.62;90.82
64644;BME280;51056;50.330;7.914;2023-01-26T23:31:16;101151.69;;;1.63;90.57
64644;BME280;51056;50.330;7.914;2023-01-26T23:34:19;101149.94;;;1.62;91.21
64644;BME280;51056;50.330;7.914;2023-01-26T23:37:23;101143.94;;;1.62;90.88
64644;BME280;51056;50.330;7.914;2023-01-26T23:40:26;101147.38;;;1.67;91.00
64644;BME280;51056;50.330;7.914;2023-01-26T23:43:30;101140.47;;;1.68;90.65
64644;BME280;51056;50.330;7.914;2023-01-26T23:46:34;101145.69;;;1.63;91.10
64644;BME280;51056;50.330;7.914;2023-01-26T23:49:37;101147.38;;;1.62;90.88
64644;BME280;51056;50.330;7.914;2023-01-26T23:52:40;101143.09;;;1.61;90.94
64644;BME280;51056;50.330;7.914;2023-01-26T23:55:44;101152.53;;;1.59;91.53
64644;BME280;51056;50.330;7.914;2023-01-26T23:58:49;101152.56;;;1.58;91.23
